createdAt,value
2022-10-05T00:01:52.924Z,88.30
2022-10-05T00:04:29.154Z,88.29
2022-10-05T00:07:13.866Z,88.30
2022-10-05T00:09:52.175Z,88.27
2022-10-05T00:12:22.920Z,88.14
2022-10-05T00:15:02.334Z,88.16
2022-10-05T00:17:34.689Z,88.24
2022-10-05T00:20:20.690Z,88.29
2022-10-05T00:22:59.309Z,88.08
2022-10-05T00:25:37.283Z,87.84
2022-10-05T00:28:18.081Z,87.67
2022-10-05T00:30:56.213Z,87.61
2022-10-05T00:33:33.027Z,87.46
2022-10-05T00:36:12.904Z,87.32
2022-10-05T00:38:46.992Z,87.31
2022-10-05T00:41:24.457Z,86.99
2022-10-05T00:44:29.628Z,87.19
2022-10-05T00:47:18.481Z,87.46
2022-10-05T00:50:12.555Z,87.70
2022-10-05T00:53:04.755Z,87.85
2022-10-05T00:55:51.473Z,88.07
2022-10-05T00:58:39.796Z,88.19
2022-10-05T01:01:38.570Z,88.54
2022-10-05T01:04:22.075Z,88.76
2022-10-05T01:07:17.800Z,88.75
2022-10-05T01:10:07.464Z,88.68
2022-10-05T01:12:49.558Z,88.90
2022-10-05T01:15:30.845Z,88.80
2022-10-05T01:18:14.838Z,88.88
2022-10-05T01:21:04.880Z,88.91
2022-10-05T01:24:21.976Z,89.10
2022-10-05T01:27:17.120Z,88.66
2022-10-05T01:30:02.717Z,88.76
2022-10-05T01:32:44.936Z,88.52
2022-10-05T01:35:47.620Z,88.39
2022-10-05T01:38:34.590Z,88.11
2022-10-05T01:41:26.860Z,87.85
2022-10-05T01:44:04.588Z,87.71
2022-10-05T01:47:08.358Z,87.71
2022-10-05T01:49:47.454Z,87.64
2022-10-05T01:52:43.702Z,87.55
2022-10-05T01:55:26.083Z,87.50
2022-10-05T01:58:12.698Z,87.83
2022-10-05T02:00:57.559Z,87.82
2022-10-05T02:03:38.873Z,87.85
2022-10-05T02:06:19.493Z,88.06
2022-10-05T02:09:12.534Z,88.33
2022-10-05T02:11:48.713Z,88.34
2022-10-05T02:14:28.867Z,88.41
2022-10-05T02:17:16.073Z,88.54
2022-10-05T02:19:55.727Z,88.63
2022-10-05T02:22:33.498Z,88.81
2022-10-05T02:25:10.948Z,88.74
2022-10-05T02:27:56.513Z,88.70
2022-10-05T02:30:46.786Z,88.75
2022-10-05T02:33:30.873Z,88.50
2022-10-05T02:36:26.651Z,88.45
2022-10-05T02:39:07.962Z,88.58
2022-10-05T02:41:52.141Z,88.64
2022-10-05T02:44:34.605Z,88.78
2022-10-05T02:47:29.900Z,88.81
2022-10-05T02:50:15.479Z,89.06
2022-10-05T02:52:56.660Z,89.39
2022-10-05T02:55:40.293Z,89.01
2022-10-05T02:58:20.652Z,88.99
2022-10-05T03:01:03.722Z,88.93
2022-10-05T03:03:43.284Z,88.98
2022-10-05T03:06:24.920Z,89.11
2022-10-05T03:09:03.182Z,89.01
2022-10-05T03:11:42.948Z,89.00
2022-10-05T03:14:24.590Z,88.78
2022-10-05T03:17:22.526Z,88.92
2022-10-05T03:20:17.928Z,88.94
2022-10-05T03:22:56.379Z,88.74
2022-10-05T03:25:52.115Z,88.82
2022-10-05T03:28:34.124Z,88.95
2022-10-05T03:31:15.529Z,88.85
2022-10-05T03:33:54.564Z,88.86
2022-10-05T03:36:34.312Z,88.78
2022-10-05T03:39:16.750Z,88.81
2022-10-05T03:41:56.317Z,88.60
2022-10-05T03:44:37.097Z,88.79
2022-10-05T03:47:22.126Z,88.96
2022-10-05T03:50:34.983Z,89.23
2022-10-05T03:53:13.770Z,89.39
2022-10-05T03:56:15.273Z,89.21
2022-10-05T03:58:57.577Z,89.34
2022-10-05T04:01:58.408Z,89.34
2022-10-05T04:04:38.103Z,88.97
2022-10-05T04:07:23.979Z,89.00
2022-10-05T04:09:58.908Z,89.37
2022-10-05T04:12:34.581Z,89.42
2022-10-05T04:15:20.725Z,89.67
2022-10-05T04:18:01.990Z,89.67
2022-10-05T04:20:44.178Z,89.74
2022-10-05T04:23:26.813Z,89.93
2022-10-05T04:26:03.550Z,90.02
2022-10-05T04:28:46.803Z,90.10
2022-10-05T04:31:30.760Z,90.22
2022-10-05T04:34:12.784Z,90.26
2022-10-05T04:36:53.548Z,90.08
2022-10-05T04:39:42.970Z,90.17
2022-10-05T04:42:23.902Z,90.19
2022-10-05T04:45:09.749Z,90.07
2022-10-05T04:47:59.590Z,90.01
2022-10-05T04:50:49.378Z,89.61
2022-10-05T04:53:31.653Z,89.14
2022-10-05T04:56:10.953Z,89.33
2022-10-05T04:58:54.943Z,88.96
2022-10-05T05:01:44.139Z,88.51
2022-10-05T05:07:33.819Z,88.84
2022-10-05T05:10:54.368Z,88.39
2022-10-05T05:14:12.240Z,88.45
2022-10-05T05:16:50.114Z,88.56
2022-10-05T05:19:39.791Z,88.25
2022-10-05T05:22:26.032Z,88.24
2022-10-05T05:25:20.586Z,88.02
2022-10-05T05:27:57.839Z,87.91
2022-10-05T05:30:39.186Z,87.85
2022-10-05T05:33:21.567Z,87.98
2022-10-05T05:36:19.492Z,87.57
2022-10-05T05:39:23.224Z,87.32
2022-10-05T05:42:03.067Z,86.92
2022-10-05T05:44:42.840Z,87.11
2022-10-05T05:47:22.147Z,87.13
2022-10-05T05:50:12.287Z,87.16
2022-10-05T05:52:50.856Z,87.16
2022-10-05T05:55:29.729Z,86.96
2022-10-05T05:58:10.615Z,86.73
2022-10-05T06:00:48.852Z,86.48
2022-10-05T06:03:38.752Z,86.18
2022-10-05T06:06:15.820Z,86.20
2022-10-05T06:08:56.648Z,86.11
2022-10-05T06:11:47.341Z,85.87
2022-10-05T06:14:30.004Z,85.49
2022-10-05T06:17:06.577Z,85.48
2022-10-05T06:19:41.070Z,85.17
2022-10-05T06:22:20.120Z,84.86
2022-10-05T06:25:06.245Z,84.49
2022-10-05T06:28:10.186Z,84.38
2022-10-05T06:30:53.758Z,84.16
2022-10-05T06:33:40.317Z,83.83
2022-10-05T06:36:41.682Z,83.37
2022-10-05T06:39:51.050Z,82.42
2022-10-05T06:42:37.833Z,81.24
2022-10-05T06:45:31.371Z,80.87
2022-10-05T06:48:20.124Z,80.22
2022-10-05T06:51:18.872Z,79.70
2022-10-05T06:54:29.137Z,78.80
2022-10-05T06:57:09.302Z,77.89
2022-10-05T06:59:52.139Z,77.02
2022-10-05T07:02:32.541Z,76.28
2022-10-05T07:05:37.952Z,76.11
2022-10-05T07:08:14.838Z,74.62
2022-10-05T07:11:05.737Z,73.16
2022-10-05T07:14:03.254Z,72.30
2022-10-05T07:16:46.741Z,71.85
2022-10-05T07:19:32.802Z,71.37
2022-10-05T07:22:30.530Z,71.35
2022-10-05T07:25:14.357Z,71.42
2022-10-05T07:27:56.335Z,71.36
2022-10-05T07:30:29.939Z,70.85
2022-10-05T07:33:10.450Z,70.30
2022-10-05T07:36:10.768Z,70.45
2022-10-05T07:38:49.732Z,70.39
2022-10-05T07:41:31.497Z,70.66
2022-10-05T07:44:13.588Z,70.01
2022-10-05T07:47:11.268Z,71.02
2022-10-05T07:49:51.722Z,70.57
2022-10-05T07:52:32.372Z,69.95
2022-10-05T07:55:20.103Z,69.59
2022-10-05T07:58:04.561Z,69.42
2022-10-05T08:00:56.050Z,68.56
2022-10-05T08:03:36.336Z,67.99
2022-10-05T08:06:14.077Z,67.80
2022-10-05T08:09:03.238Z,67.21
2022-10-05T08:11:45.939Z,67.49
2022-10-05T08:14:27.399Z,67.73
2022-10-05T08:17:05.295Z,67.70
2022-10-05T08:19:47.053Z,68.06
2022-10-05T08:22:47.265Z,68.12
2022-10-05T08:25:47.954Z,68.41
2022-10-05T08:28:27.878Z,68.11
2022-10-05T08:31:25.179Z,67.71
2022-10-05T08:34:27.729Z,67.37
2022-10-05T08:37:05.323Z,67.26
2022-10-05T08:39:41.420Z,67.81
2022-10-05T08:42:38.352Z,67.55
2022-10-05T08:45:32.574Z,67.41
2022-10-05T08:48:28.241Z,66.87
2022-10-05T08:51:39.210Z,66.97
2022-10-05T08:54:38.602Z,66.49
2022-10-05T08:57:48.869Z,66.37
2022-10-05T09:00:40.497Z,66.06
2022-10-05T09:03:53.619Z,64.73
2022-10-05T09:07:03.876Z,63.68
2022-10-05T09:10:43.922Z,63.76
2022-10-05T09:13:58.860Z,63.32
2022-10-05T09:17:21.358Z,62.98
2022-10-05T09:20:38.857Z,61.94
2022-10-05T09:23:39.936Z,60.83
2022-10-05T09:26:53.086Z,60.13
2022-10-05T09:30:23.783Z,60.87
2022-10-05T09:33:37.072Z,60.58
2022-10-05T09:37:09.582Z,61.15
2022-10-05T09:40:12.805Z,59.46
2022-10-05T09:43:23.619Z,56.89
2022-10-05T09:46:20.678Z,57.17
2022-10-05T09:49:41.189Z,55.98
2022-10-05T09:52:55.263Z,55.80
2022-10-05T09:56:06.443Z,55.73
2022-10-05T09:59:07.700Z,55.88
2022-10-05T10:02:27.786Z,55.69
2022-10-05T10:05:22.995Z,55.75
2022-10-05T10:08:22.712Z,53.91
2022-10-05T10:11:38.870Z,53.90
2022-10-05T10:15:00.531Z,53.36
2022-10-05T10:17:55.853Z,54.05
2022-10-05T10:20:38.790Z,54.70
2022-10-05T10:23:48.023Z,54.42
2022-10-05T10:26:54.469Z,53.69
2022-10-05T10:29:51.820Z,53.97
2022-10-05T10:32:43.666Z,53.87
2022-10-05T10:35:37.745Z,54.29
2022-10-05T10:38:35.144Z,54.31
2022-10-05T10:41:57.861Z,54.10
2022-10-05T10:45:29.470Z,53.71
2022-10-05T10:48:34.159Z,53.37
2022-10-05T10:51:27.080Z,53.58
2022-10-05T10:54:55.661Z,54.16
2022-10-05T10:57:34.104Z,53.67
2022-10-05T11:00:33.788Z,52.88
2022-10-05T11:04:02.070Z,53.02
2022-10-05T11:07:22.271Z,52.25
2022-10-05T11:10:38.669Z,53.53
2022-10-05T11:13:28.356Z,53.10
2022-10-05T11:16:54.575Z,52.94
2022-10-05T11:20:04.143Z,52.50
2022-10-05T11:22:56.192Z,53.05
2022-10-05T11:25:44.507Z,53.27
2022-10-05T11:29:10.950Z,51.78
2022-10-05T11:32:40.556Z,51.87
2022-10-05T11:35:50.704Z,51.12
2022-10-05T11:39:10.385Z,51.99
2022-10-05T11:42:33.309Z,51.74
2022-10-05T11:45:27.156Z,52.91
2022-10-05T11:48:46.999Z,52.79
2022-10-05T11:51:31.762Z,52.84
2022-10-05T11:54:24.510Z,52.56
2022-10-05T11:57:11.627Z,52.66
2022-10-05T12:00:13.765Z,52.17
2022-10-05T12:03:09.516Z,52.60
2022-10-05T12:06:14.603Z,52.58
2022-10-05T12:09:05.091Z,52.11
2022-10-05T12:11:57.650Z,51.75
2022-10-05T12:14:58.982Z,51.12
2022-10-05T12:17:39.248Z,52.09
2022-10-05T12:20:20.386Z,51.81
2022-10-05T12:23:01.223Z,51.21
2022-10-05T12:25:39.966Z,51.03
2022-10-05T12:28:18.484Z,50.68
2022-10-05T12:31:30.088Z,51.14
2022-10-05T12:34:14.765Z,51.54
2022-10-05T12:37:04.194Z,52.00
2022-10-05T12:39:50.749Z,51.75
2022-10-05T12:42:32.545Z,52.85
2022-10-05T12:45:23.142Z,52.65
2022-10-05T12:48:15.844Z,51.53
2022-10-05T12:50:52.155Z,51.68
2022-10-05T12:53:37.689Z,51.91
2022-10-05T12:56:16.156Z,52.38
2022-10-05T12:58:59.530Z,52.60
2022-10-05T13:01:40.129Z,52.63
2022-10-05T13:04:27.591Z,53.44
2022-10-05T13:07:19.662Z,53.83
2022-10-05T13:10:03.080Z,52.19
2022-10-05T13:12:48.163Z,52.12
2022-10-05T13:15:28.534Z,52.03
2022-10-05T13:18:14.710Z,52.61
2022-10-05T13:20:52.626Z,53.17
2022-10-05T13:23:26.412Z,53.24
2022-10-05T13:26:09.889Z,53.91
2022-10-05T13:28:49.644Z,54.47
2022-10-05T13:31:25.824Z,54.48
2022-10-05T13:34:20.797Z,53.85
2022-10-05T13:37:03.060Z,54.22
2022-10-05T13:39:50.067Z,54.43
2022-10-05T13:42:32.404Z,55.04
2022-10-05T13:45:14.162Z,54.86
2022-10-05T13:48:04.284Z,54.46
2022-10-05T13:50:45.367Z,54.79
2022-10-05T13:53:26.662Z,55.28
2022-10-05T13:56:22.932Z,55.23
2022-10-05T13:59:06.188Z,55.44
2022-10-05T14:01:45.121Z,55.65
2022-10-05T14:04:24.662Z,56.30
2022-10-05T14:06:57.353Z,56.42
2022-10-05T14:09:36.486Z,56.48
2022-10-05T14:12:20.742Z,56.78
2022-10-05T14:14:54.858Z,56.96
2022-10-05T14:17:40.435Z,56.57
2022-10-05T14:20:28.227Z,56.81
2022-10-05T14:23:00.777Z,56.97
2022-10-05T14:25:46.781Z,57.31
2022-10-05T14:28:29.993Z,57.67
2022-10-05T14:31:03.876Z,57.93
2022-10-05T14:33:36.514Z,57.95
2022-10-05T14:36:13.501Z,57.59
2022-10-05T14:38:57.874Z,57.65
2022-10-05T14:41:35.385Z,57.82
2022-10-05T14:44:29.391Z,58.13
2022-10-05T14:47:17.122Z,58.50
2022-10-05T14:50:09.872Z,58.38
2022-10-05T14:52:49.650Z,59.02
2022-10-05T14:55:39.484Z,59.04
2022-10-05T14:58:32.815Z,59.38
2022-10-05T15:01:17.825Z,60.00
2022-10-05T15:03:58.660Z,60.22
2022-10-05T15:06:37.636Z,60.62
2022-10-05T15:09:28.455Z,61.03
2022-10-05T15:12:03.977Z,61.31
2022-10-05T15:14:40.178Z,61.62
2022-10-05T15:17:19.822Z,61.96
2022-10-05T15:20:05.306Z,61.98
2022-10-05T15:22:46.545Z,62.36
2022-10-05T15:25:26.881Z,62.69
2022-10-05T15:28:11.138Z,63.01
2022-10-05T15:31:01.489Z,63.29
2022-10-05T15:33:54.773Z,63.50
2022-10-05T15:36:35.689Z,63.66
2022-10-05T15:39:15.967Z,63.88
2022-10-05T15:42:05.601Z,64.25
2022-10-05T15:44:50.513Z,64.54
2022-10-05T15:47:28.181Z,64.85
2022-10-05T15:50:10.657Z,65.06
2022-10-05T15:52:49.682Z,65.34
2022-10-05T15:55:32.221Z,65.52
2022-10-05T15:58:31.230Z,65.93
2022-10-05T16:01:08.485Z,65.94
2022-10-05T16:03:52.392Z,66.11
2022-10-05T16:07:01.074Z,66.25
2022-10-05T16:09:49.885Z,66.68
2022-10-05T16:12:32.134Z,67.07
2022-10-05T16:15:18.893Z,67.15
2022-10-05T16:18:06.444Z,67.43
2022-10-05T16:20:50.106Z,67.82
2022-10-05T16:23:34.559Z,68.22
2022-10-05T16:26:19.699Z,68.40
2022-10-05T16:29:00.799Z,68.46
2022-10-05T16:31:41.798Z,68.42
2022-10-05T16:34:25.880Z,68.48
2022-10-05T16:37:06.591Z,68.54
2022-10-05T16:39:51.348Z,68.45
2022-10-05T16:42:39.034Z,68.43
2022-10-05T16:45:21.484Z,68.45
2022-10-05T16:47:59.947Z,68.57
2022-10-05T16:50:38.831Z,68.70
2022-10-05T16:53:20.180Z,68.81
2022-10-05T16:55:57.836Z,68.86
2022-10-05T16:58:42.861Z,69.17
2022-10-05T17:01:31.163Z,69.21
2022-10-05T17:04:17.562Z,69.38
2022-10-05T17:07:22.018Z,69.46
2022-10-05T17:10:08.124Z,69.62
2022-10-05T17:12:54.395Z,69.43
2022-10-05T17:15:39.946Z,69.51
2022-10-05T17:18:31.143Z,69.56
2022-10-05T17:21:12.601Z,69.64
2022-10-05T17:24:01.511Z,69.85
2022-10-05T17:26:56.365Z,69.89
2022-10-05T17:29:48.045Z,69.91
2022-10-05T17:32:57.780Z,70.16
2022-10-05T17:35:50.806Z,70.22
2022-10-05T17:38:41.877Z,70.19
2022-10-05T17:41:18.315Z,70.29
2022-10-05T17:44:26.437Z,69.96
2022-10-05T17:47:00.131Z,70.04
2022-10-05T17:50:08.999Z,69.91
2022-10-05T17:53:02.075Z,70.21
2022-10-05T17:56:03.334Z,70.35
2022-10-05T17:59:06.808Z,70.39
2022-10-05T18:01:40.840Z,70.44
2022-10-05T18:04:50.350Z,70.55
2022-10-05T18:07:24.907Z,70.57
2022-10-05T18:10:20.066Z,70.38
2022-10-05T18:13:12.792Z,70.20
2022-10-05T18:15:48.762Z,70.10
2022-10-05T18:18:59.106Z,70.18
2022-10-05T18:22:03.472Z,70.17
2022-10-05T18:25:03.963Z,70.15
2022-10-05T18:28:16.732Z,70.15
2022-10-05T18:31:04.960Z,70.28
2022-10-05T18:33:59.708Z,70.27
2022-10-05T18:36:46.970Z,70.55
2022-10-05T18:39:32.593Z,70.33
2022-10-05T18:42:17.096Z,70.26
2022-10-05T18:44:54.589Z,70.31
2022-10-05T18:47:34.562Z,70.30
2022-10-05T18:50:21.058Z,70.27
2022-10-05T18:53:04.493Z,70.59
2022-10-05T18:55:42.666Z,70.66
2022-10-05T18:58:26.999Z,70.98
2022-10-05T19:01:23.454Z,71.04
2022-10-05T19:04:06.007Z,71.23
2022-10-05T19:06:48.713Z,71.31
2022-10-05T19:09:40.926Z,71.41
2022-10-05T19:12:22.268Z,71.52
2022-10-05T19:15:03.052Z,71.46
2022-10-05T19:17:54.539Z,71.61
2022-10-05T19:20:34.134Z,71.70
2022-10-05T19:23:31.251Z,71.73
2022-10-05T19:26:14.921Z,71.94
2022-10-05T19:29:04.638Z,72.16
2022-10-05T19:31:55.364Z,72.40
2022-10-05T19:34:42.751Z,72.48
2022-10-05T19:37:21.928Z,72.43
2022-10-05T19:40:19.698Z,72.61
2022-10-05T19:43:15.862Z,72.56
2022-10-05T19:46:19.981Z,72.46
2022-10-05T19:48:55.031Z,72.62
2022-10-05T19:51:51.652Z,72.60
2022-10-05T19:54:29.203Z,72.65
2022-10-05T19:57:02.935Z,72.73
2022-10-05T19:59:35.671Z,72.75
2022-10-05T20:02:07.570Z,72.81
2022-10-05T20:04:44.461Z,72.87
2022-10-05T20:07:37.376Z,72.87
2022-10-05T20:10:31.177Z,72.64
2022-10-05T20:13:08.798Z,72.71
2022-10-05T20:15:58.500Z,72.40
2022-10-05T20:19:09.124Z,72.28
2022-10-05T20:21:49.992Z,72.10
2022-10-05T20:24:25.886Z,72.16
2022-10-05T20:27:06.171Z,72.16
2022-10-05T20:29:58.253Z,72.34
2022-10-05T20:32:30.906Z,72.18
2022-10-05T20:35:23.878Z,72.18
2022-10-05T20:38:09.859Z,72.17
2022-10-05T20:40:44.253Z,72.07
2022-10-05T20:43:28.573Z,72.15
2022-10-05T20:46:08.684Z,71.96
2022-10-05T20:48:53.909Z,72.01
2022-10-05T20:51:28.968Z,72.11
2022-10-05T20:54:10.045Z,72.30
2022-10-05T20:57:02.706Z,72.20
2022-10-05T20:59:37.908Z,72.40
2022-10-05T21:02:12.904Z,72.38
2022-10-05T21:04:47.637Z,72.46
2022-10-05T21:07:23.460Z,72.35
2022-10-05T21:10:05.831Z,72.52
2022-10-05T21:13:02.832Z,72.47
2022-10-05T21:15:38.392Z,72.62
2022-10-05T21:18:10.353Z,72.68
2022-10-05T21:21:02.532Z,72.90
2022-10-05T21:23:35.289Z,72.97
2022-10-05T21:26:29.212Z,73.03
2022-10-05T21:29:02.454Z,73.38
2022-10-05T21:31:34.377Z,73.27
2022-10-05T21:34:17.382Z,73.24
2022-10-05T21:36:49.157Z,73.27
2022-10-05T21:39:21.122Z,73.13
2022-10-05T21:41:53.101Z,73.21
2022-10-05T21:44:24.998Z,73.22
2022-10-05T21:46:57.625Z,73.23
2022-10-05T21:49:31.243Z,73.11
2022-10-05T21:52:23.798Z,73.23
2022-10-05T21:54:58.915Z,73.27
2022-10-05T21:57:51.022Z,73.23
2022-10-05T22:00:43.119Z,73.13
2022-10-05T22:03:35.625Z,72.90
2022-10-05T22:06:08.124Z,72.87
2022-10-05T22:08:40.031Z,72.75
2022-10-05T22:11:17.853Z,72.65
2022-10-05T22:13:53.393Z,72.60
2022-10-05T22:16:47.394Z,72.74
2022-10-05T22:19:40.090Z,72.83
2022-10-05T22:22:22.173Z,72.93
2022-10-05T22:25:14.407Z,72.91
2022-10-05T22:27:56.689Z,72.83
2022-10-05T22:30:38.543Z,72.87
2022-10-05T22:33:30.837Z,72.76
2022-10-05T22:36:10.531Z,72.67
2022-10-05T22:38:53.928Z,72.61
2022-10-05T22:41:39.689Z,72.57
2022-10-05T22:44:12.509Z,72.73
2022-10-05T22:47:05.340Z,72.76
2022-10-05T22:49:57.355Z,72.87
2022-10-05T22:52:52.257Z,72.79
2022-10-05T22:55:44.297Z,72.69
2022-10-05T22:58:25.616Z,72.82
2022-10-05T23:01:22.065Z,72.66
2022-10-05T23:04:14.111Z,72.65
2022-10-05T23:06:46.039Z,72.62
2022-10-05T23:09:17.871Z,72.55
2022-10-05T23:11:54.395Z,72.70
2022-10-05T23:14:26.557Z,72.69
2022-10-05T23:17:01.498Z,72.85
2022-10-05T23:19:53.653Z,72.90
2022-10-05T23:22:28.837Z,72.97
2022-10-05T23:25:11.763Z,72.92
2022-10-05T23:28:04.336Z,72.96
2022-10-05T23:31:01.069Z,72.93
2022-10-05T23:33:37.989Z,72.99
2022-10-05T23:36:32.442Z,73.06
2022-10-05T23:39:04.471Z,73.10
2022-10-05T23:41:36.405Z,73.30
2022-10-05T23:44:20.183Z,73.50
2022-10-05T23:46:55.277Z,73.70
2022-10-05T23:49:47.335Z,73.67
2022-10-05T23:52:29.275Z,73.65
2022-10-05T23:55:13.988Z,73.66
2022-10-05T23:57:48.830Z,73.64
